createdAt,value
2017-12-14T00:01:32.660Z,3.80
2017-12-14T00:04:09.066Z,3.80
2017-12-14T00:06:42.695Z,3.80
2017-12-14T00:09:16.526Z,3.80
2017-12-14T00:11:50.421Z,3.90
2017-12-14T00:14:28.195Z,4.00
2017-12-14T00:17:01.852Z,4.00
2017-12-14T00:19:35.563Z,4.00
2017-12-14T00:22:10.429Z,4.00
2017-12-14T00:24:44.506Z,4.00
2017-12-14T00:27:18.107Z,4.00
2017-12-14T00:29:51.853Z,4.00
2017-12-14T00:32:25.665Z,4.00
2017-12-14T00:34:59.364Z,4.00
2017-12-14T00:37:33.598Z,4.00
2017-12-14T00:40:07.308Z,3.90
2017-12-14T00:42:41.230Z,4.00
2017-12-14T00:45:15.130Z,3.90
2017-12-14T00:47:49.609Z,3.90
2017-12-14T00:50:25.339Z,3.90
2017-12-14T00:52:59.367Z,3.90
2017-12-14T00:55:33.128Z,3.90
2017-12-14T00:58:06.913Z,4.00
2017-12-14T01:00:41.655Z,4.00
2017-12-14T01:03:15.334Z,4.10
2017-12-14T01:05:49.163Z,4.20
2017-12-14T01:08:22.829Z,4.30
2017-12-14T01:10:56.836Z,4.30
2017-12-14T01:13:30.544Z,4.50
2017-12-14T01:16:04.405Z,4.60
2017-12-14T01:18:39.015Z,4.70
2017-12-14T01:21:12.728Z,4.90
2017-12-14T01:23:46.423Z,4.90
2017-12-14T01:26:20.212Z,5.00
2017-12-14T01:28:53.945Z,5.10
2017-12-14T01:31:28.573Z,5.10
2017-12-14T01:34:02.230Z,5.10
2017-12-14T01:36:36.289Z,5.10
2017-12-14T01:39:10.086Z,5.10
2017-12-14T01:41:43.895Z,5.10
2017-12-14T01:44:17.534Z,5.20
2017-12-14T01:46:51.356Z,5.20
2017-12-14T01:49:26.076Z,5.10
2017-12-14T01:52:00.835Z,5.10
2017-12-14T01:54:36.456Z,5.00
2017-12-14T01:57:10.198Z,4.90
2017-12-14T01:59:43.932Z,4.90
2017-12-14T02:02:17.641Z,4.90
2017-12-14T02:04:51.420Z,4.90
2017-12-14T02:07:25.200Z,4.90
2017-12-14T02:09:59.088Z,4.90
2017-12-14T02:12:32.869Z,4.90
2017-12-14T02:15:07.516Z,5.00
2017-12-14T02:17:41.302Z,5.00
2017-12-14T02:20:15.352Z,4.90
2017-12-14T02:22:49.076Z,4.90
2017-12-14T02:25:23.625Z,4.90
2017-12-14T02:27:57.322Z,4.80
2017-12-14T02:30:31.007Z,4.90
2017-12-14T02:33:04.813Z,4.90
2017-12-14T02:35:38.569Z,4.90
2017-12-14T02:38:15.720Z,4.90
2017-12-14T02:40:50.243Z,4.90
2017-12-14T02:43:24.746Z,4.90
2017-12-14T02:45:58.565Z,4.80
2017-12-14T02:48:32.412Z,4.80
2017-12-14T02:51:06.399Z,4.70
2017-12-14T02:53:40.217Z,4.80
2017-12-14T02:56:13.990Z,4.80
2017-12-14T02:58:48.373Z,4.90
2017-12-14T03:01:22.892Z,4.90
2017-12-14T03:03:56.890Z,4.90
2017-12-14T03:06:30.433Z,5.00
2017-12-14T03:09:05.203Z,4.90
2017-12-14T03:11:39.316Z,4.80
2017-12-14T03:14:13.040Z,4.80
2017-12-14T03:16:46.752Z,4.80
2017-12-14T03:19:22.065Z,4.70
2017-12-14T03:21:55.772Z,4.70
2017-12-14T03:24:29.537Z,4.60
2017-12-14T03:27:03.306Z,4.50
2017-12-14T03:29:37.125Z,4.40
2017-12-14T03:32:10.869Z,4.40
2017-12-14T03:34:45.598Z,4.30
2017-12-14T03:37:19.190Z,4.20
2017-12-14T03:39:53.732Z,4.20
2017-12-14T03:42:29.413Z,4.10
2017-12-14T03:45:04.043Z,4.20
2017-12-14T03:47:37.793Z,4.20
2017-12-14T03:50:11.557Z,4.20
2017-12-14T03:52:45.472Z,4.10
2017-12-14T03:55:19.297Z,4.10
2017-12-14T03:57:53.094Z,4.10
2017-12-14T04:00:26.868Z,4.00
2017-12-14T04:03:00.623Z,4.00
2017-12-14T04:05:34.422Z,3.90
2017-12-14T04:08:08.146Z,3.90
2017-12-14T04:10:42.851Z,3.90
2017-12-14T04:13:17.513Z,4.00
2017-12-14T04:15:51.977Z,4.10
2017-12-14T04:18:26.400Z,4.10
2017-12-14T04:21:01.099Z,4.20
2017-12-14T04:23:37.414Z,4.20
2017-12-14T04:26:11.759Z,4.20
2017-12-14T04:28:45.322Z,4.30
2017-12-14T04:31:19.837Z,4.30
2017-12-14T04:33:53.476Z,4.30
2017-12-14T04:36:27.409Z,4.30
2017-12-14T04:39:01.178Z,4.30
2017-12-14T04:41:36.258Z,4.30
2017-12-14T04:44:12.334Z,4.30
2017-12-14T04:46:46.372Z,4.30
2017-12-14T04:49:20.308Z,4.30
2017-12-14T04:51:55.642Z,4.30
2017-12-14T04:54:31.315Z,4.40
2017-12-14T04:57:05.851Z,4.40
2017-12-14T04:59:39.659Z,4.30
2017-12-14T05:02:13.465Z,4.30
2017-12-14T05:04:47.186Z,4.30
2017-12-14T05:07:21.053Z,4.40
2017-12-14T05:09:54.660Z,4.30
2017-12-14T05:12:28.528Z,4.30
2017-12-14T05:15:02.278Z,4.40
2017-12-14T05:17:36.148Z,4.40
2017-12-14T05:20:09.925Z,4.30
2017-12-14T05:22:44.509Z,4.40
2017-12-14T05:28:17.506Z,4.40
2017-12-14T05:30:52.246Z,4.40
2017-12-14T05:33:25.900Z,4.30
2017-12-14T05:36:00.439Z,4.30
2017-12-14T05:38:35.297Z,4.30
2017-12-14T05:41:08.999Z,4.30
2017-12-14T05:43:42.784Z,4.30
2017-12-14T05:46:17.284Z,4.30
2017-12-14T05:48:51.073Z,4.30
2017-12-14T05:51:24.784Z,4.30
2017-12-14T05:53:58.788Z,4.30
2017-12-14T05:56:34.018Z,4.30
2017-12-14T05:59:08.835Z,4.30
2017-12-14T06:01:43.105Z,4.40
2017-12-14T06:04:16.954Z,4.40
2017-12-14T06:06:50.991Z,4.40
2017-12-14T06:09:24.768Z,4.40
2017-12-14T06:11:58.553Z,4.40
2017-12-14T06:14:33.245Z,4.40
2017-12-14T06:17:07.671Z,4.40
2017-12-14T06:19:42.906Z,4.40
2017-12-14T06:22:18.264Z,4.40
2017-12-14T06:24:53.060Z,4.40
2017-12-14T06:27:27.961Z,4.40
2017-12-14T06:30:01.600Z,4.40
2017-12-14T06:32:35.195Z,4.30
2017-12-14T06:35:09.719Z,4.30
2017-12-14T06:37:45.113Z,4.30
2017-12-14T06:40:20.203Z,4.30
2017-12-14T06:42:53.927Z,4.30
2017-12-14T06:45:28.266Z,4.30
2017-12-14T06:48:02.155Z,4.20
2017-12-14T06:50:37.099Z,4.30
2017-12-14T06:53:10.912Z,4.20
2017-12-14T06:55:44.808Z,4.20
2017-12-14T06:58:19.892Z,4.20
2017-12-14T07:00:54.376Z,4.10
2017-12-14T07:03:28.900Z,4.00
2017-12-14T07:06:02.599Z,4.00
2017-12-14T07:08:37.065Z,3.90
2017-12-14T07:11:12.532Z,3.90
2017-12-14T07:13:46.291Z,3.90
2017-12-14T07:16:20.290Z,3.90
2017-12-14T07:18:53.869Z,3.80
2017-12-14T07:21:27.698Z,3.80
2017-12-14T07:24:01.801Z,3.80
2017-12-14T07:26:35.549Z,3.80
2017-12-14T07:29:09.343Z,3.70
2017-12-14T07:31:43.194Z,3.60
2017-12-14T07:34:17.542Z,3.40
2017-12-14T07:36:52.468Z,3.10
2017-12-14T07:39:27.987Z,3.00
2017-12-14T07:42:01.540Z,2.70
2017-12-14T07:44:36.203Z,2.60
2017-12-14T07:50:11.876Z,2.60
2017-12-14T07:52:45.697Z,2.60
2017-12-14T07:55:19.557Z,2.70
2017-12-14T07:57:53.404Z,2.70
2017-12-14T08:00:27.217Z,2.80
2017-12-14T08:03:01.737Z,2.90
2017-12-14T08:05:35.609Z,2.90
2017-12-14T08:08:10.036Z,2.90
2017-12-14T08:10:43.732Z,3.00
2017-12-14T08:13:21.480Z,3.00
2017-12-14T08:15:56.303Z,3.00
2017-12-14T08:18:31.357Z,3.00
2017-12-14T08:21:05.109Z,3.00
2017-12-14T08:23:39.265Z,2.90
2017-12-14T08:26:13.016Z,2.90
2017-12-14T08:28:48.356Z,2.80
2017-12-14T08:31:22.010Z,2.70
2017-12-14T08:33:56.210Z,2.60
2017-12-14T08:36:31.728Z,2.60
2017-12-14T08:39:05.332Z,2.50
2017-12-14T08:44:17.241Z,2.50
2017-12-14T08:46:52.525Z,2.50
2017-12-14T08:49:27.905Z,2.30
2017-12-14T08:52:01.468Z,2.30
2017-12-14T08:54:36.772Z,2.30
2017-12-14T08:57:10.588Z,2.30
2017-12-14T08:59:45.011Z,2.20
2017-12-14T09:02:20.475Z,2.20
2017-12-14T09:04:54.271Z,2.20
2017-12-14T09:07:33.336Z,2.20
2017-12-14T09:10:07.041Z,2.20
2017-12-14T09:12:40.926Z,2.20
2017-12-14T09:15:14.836Z,2.20
2017-12-14T09:17:48.649Z,2.30
2017-12-14T09:20:22.775Z,2.20
2017-12-14T09:22:56.634Z,2.20
2017-12-14T09:25:32.074Z,2.20
2017-12-14T09:28:06.598Z,2.20
2017-12-14T09:30:40.342Z,2.20
2017-12-14T09:33:14.236Z,2.20
2017-12-14T09:35:49.312Z,2.20
2017-12-14T09:38:24.166Z,2.20
2017-12-14T09:40:58.252Z,2.20
2017-12-14T09:43:32.116Z,2.30
2017-12-14T09:46:06.549Z,2.30
2017-12-14T09:48:40.729Z,2.30
2017-12-14T09:51:14.920Z,2.30
2017-12-14T09:53:49.700Z,2.50
2017-12-14T09:56:25.345Z,2.50
2017-12-14T09:58:59.845Z,2.50
2017-12-14T10:01:35.559Z,2.50
2017-12-14T10:04:10.200Z,2.60
2017-12-14T10:06:43.888Z,2.70
2017-12-14T10:09:18.716Z,2.80
2017-12-14T10:11:52.536Z,2.90
2017-12-14T10:14:26.378Z,3.10
2017-12-14T10:16:59.980Z,3.20
2017-12-14T10:19:33.917Z,3.30
2017-12-14T10:22:07.682Z,3.50
2017-12-14T10:24:41.427Z,3.60
2017-12-14T10:27:15.182Z,3.60
2017-12-14T10:29:48.989Z,3.70
2017-12-14T10:32:22.771Z,3.70
2017-12-14T10:34:56.505Z,3.80
2017-12-14T10:37:34.096Z,3.90
2017-12-14T10:40:08.567Z,3.80
2017-12-14T10:42:42.368Z,3.80
2017-12-14T10:45:16.969Z,3.80
2017-12-14T10:47:50.828Z,3.80
2017-12-14T10:50:25.259Z,3.80
2017-12-14T10:53:00.403Z,3.80
2017-12-14T10:55:34.826Z,3.80
2017-12-14T10:58:08.665Z,3.90
2017-12-14T11:00:48.788Z,4.00
2017-12-14T11:03:23.116Z,4.00
2017-12-14T11:05:56.699Z,4.00
2017-12-14T11:08:30.568Z,4.10
2017-12-14T11:11:04.566Z,4.10
2017-12-14T11:13:38.381Z,4.10
2017-12-14T11:16:12.186Z,4.00
2017-12-14T11:18:45.961Z,4.10
2017-12-14T11:21:21.317Z,4.10
2017-12-14T11:23:55.039Z,4.10
2017-12-14T11:26:29.150Z,4.10
2017-12-14T11:29:03.675Z,4.10
2017-12-14T11:31:37.443Z,4.00
2017-12-14T11:34:11.176Z,4.00
2017-12-14T11:36:44.968Z,3.90
2017-12-14T11:39:18.793Z,3.80
2017-12-14T11:41:52.571Z,3.80
2017-12-14T11:44:26.310Z,3.80
2017-12-14T11:47:00.881Z,3.80
2017-12-14T11:49:34.660Z,3.70
2017-12-14T11:52:08.414Z,3.70
2017-12-14T11:54:42.196Z,3.70
2017-12-14T11:57:15.906Z,3.70
2017-12-14T11:59:49.714Z,3.70
2017-12-14T12:02:23.387Z,3.70
2017-12-14T12:04:57.094Z,3.80
2017-12-14T12:07:33.611Z,3.80
2017-12-14T12:10:07.176Z,3.80
2017-12-14T12:12:41.161Z,3.90
2017-12-14T12:15:18.753Z,3.90
2017-12-14T12:17:54.875Z,3.90
2017-12-14T12:20:28.477Z,3.80
2017-12-14T12:23:02.983Z,3.80
2017-12-14T12:25:37.502Z,3.70
2017-12-14T12:28:12.041Z,3.70
2017-12-14T12:30:45.782Z,3.70
2017-12-14T12:33:19.548Z,3.60
2017-12-14T12:35:53.267Z,3.60
2017-12-14T12:38:28.153Z,3.60
2017-12-14T12:41:01.917Z,3.50
2017-12-14T12:43:35.727Z,3.50
2017-12-14T12:46:09.504Z,3.50
2017-12-14T12:48:43.305Z,3.40
2017-12-14T12:51:17.005Z,3.40
2017-12-14T12:53:51.748Z,3.40
2017-12-14T12:56:25.802Z,3.40
2017-12-14T12:58:59.654Z,3.50
2017-12-14T13:01:33.525Z,3.50
2017-12-14T13:04:08.064Z,3.40
2017-12-14T13:06:43.067Z,3.40
2017-12-14T13:09:16.855Z,3.50
2017-12-14T13:11:51.481Z,3.40
2017-12-14T13:14:26.471Z,3.40
2017-12-14T13:17:00.400Z,3.50
2017-12-14T13:19:34.344Z,3.40
2017-12-14T13:22:08.912Z,3.50
2017-12-14T13:24:43.716Z,3.40
2017-12-14T13:27:17.788Z,3.40
2017-12-14T13:29:52.997Z,3.30
2017-12-14T13:32:27.490Z,3.30
2017-12-14T13:35:04.726Z,3.30
2017-12-14T13:37:41.142Z,3.30
2017-12-14T13:40:15.009Z,3.30
2017-12-14T13:42:48.808Z,3.20
2017-12-14T13:45:23.995Z,3.20
2017-12-14T13:47:59.649Z,3.10
2017-12-14T13:50:35.666Z,3.10
2017-12-14T13:53:10.587Z,3.00
2017-12-14T13:55:46.852Z,3.10
2017-12-14T13:58:21.250Z,3.10
2017-12-14T14:00:55.867Z,3.10
2017-12-14T14:03:29.585Z,3.10
2017-12-14T14:06:03.350Z,3.10
2017-12-14T14:08:37.158Z,3.10
2017-12-14T14:11:12.573Z,3.10
2017-12-14T14:13:46.939Z,3.10
2017-12-14T14:16:20.506Z,3.10
2017-12-14T14:18:58.897Z,3.20
2017-12-14T14:21:33.572Z,3.20
2017-12-14T14:24:07.375Z,3.20
2017-12-14T14:26:41.041Z,3.20
2017-12-14T14:29:15.817Z,3.20
2017-12-14T14:31:49.417Z,3.20
2017-12-14T14:34:24.629Z,3.20
2017-12-14T14:36:58.292Z,3.20
2017-12-14T14:39:32.544Z,3.10
2017-12-14T14:42:07.529Z,3.10
2017-12-14T14:44:42.135Z,3.20
2017-12-14T14:47:15.753Z,3.20
2017-12-14T14:49:50.146Z,3.20
2017-12-14T14:52:26.606Z,3.20
2017-12-14T14:55:00.557Z,3.20
2017-12-14T14:57:34.775Z,3.20
2017-12-14T15:00:09.512Z,3.20
2017-12-14T15:02:43.132Z,3.10
2017-12-14T15:05:16.742Z,3.10
2017-12-14T15:07:54.505Z,3.00
2017-12-14T15:10:28.273Z,2.90
2017-12-14T15:13:02.067Z,2.90
2017-12-14T15:15:35.859Z,2.90
2017-12-14T15:18:10.396Z,2.90
2017-12-14T15:20:45.005Z,2.90
2017-12-14T15:23:19.167Z,2.90
2017-12-14T15:25:54.069Z,2.90
2017-12-14T15:28:28.576Z,2.90
2017-12-14T15:31:02.298Z,2.80
2017-12-14T15:33:36.589Z,2.70
2017-12-14T15:36:11.322Z,2.60
2017-12-14T15:38:48.013Z,2.50
2017-12-14T15:41:23.747Z,2.50
2017-12-14T15:43:57.992Z,2.50
2017-12-14T15:46:33.505Z,2.50
2017-12-14T15:49:08.471Z,2.50
2017-12-14T15:51:52.995Z,2.40
2017-12-14T15:54:29.275Z,2.50
2017-12-14T15:57:03.908Z,2.50
2017-12-14T15:59:39.227Z,2.50
2017-12-14T16:02:14.833Z,2.50
2017-12-14T16:04:50.535Z,2.50
2017-12-14T16:07:26.180Z,2.50
2017-12-14T16:09:59.962Z,2.50
2017-12-14T16:12:33.704Z,2.60
2017-12-14T16:15:08.196Z,2.60
2017-12-14T16:17:43.006Z,2.70
2017-12-14T16:20:16.604Z,2.70
2017-12-14T16:22:52.510Z,2.70
2017-12-14T16:25:26.252Z,2.70
2017-12-14T16:28:01.406Z,2.50
2017-12-14T16:30:35.146Z,2.50
2017-12-14T16:33:10.452Z,2.50
2017-12-14T16:35:44.285Z,2.40
2017-12-14T16:38:19.602Z,2.40
2017-12-14T16:40:54.216Z,2.40
2017-12-14T16:43:27.983Z,2.40
2017-12-14T16:46:02.945Z,2.40
2017-12-14T16:48:37.834Z,2.40
2017-12-14T16:51:11.734Z,2.40
2017-12-14T16:53:45.496Z,2.40
2017-12-14T16:56:19.858Z,2.40
2017-12-14T16:58:54.533Z,2.40
2017-12-14T17:01:29.265Z,2.40
2017-12-14T17:04:06.306Z,2.40
2017-12-14T17:06:39.948Z,2.50
2017-12-14T17:09:13.928Z,2.50
2017-12-14T17:11:47.634Z,2.50
2017-12-14T17:14:21.417Z,2.50
2017-12-14T17:16:55.243Z,2.60
2017-12-14T17:19:29.352Z,2.60
2017-12-14T17:22:04.026Z,2.50
2017-12-14T17:24:38.949Z,2.60
2017-12-14T17:27:13.806Z,2.60
2017-12-14T17:29:48.405Z,2.60
2017-12-14T17:32:24.785Z,2.60
2017-12-14T17:34:59.428Z,2.60
2017-12-14T17:37:34.248Z,2.60
2017-12-14T17:40:08.756Z,2.70
2017-12-14T17:42:42.543Z,2.70
2017-12-14T17:45:18.018Z,2.80
2017-12-14T17:47:51.837Z,2.80
2017-12-14T17:50:26.346Z,2.90
2017-12-14T17:53:00.248Z,2.80
2017-12-14T17:55:34.027Z,2.90
2017-12-14T17:58:07.834Z,2.90
2017-12-14T18:00:42.355Z,2.90
2017-12-14T18:03:16.040Z,2.90
2017-12-14T18:05:50.637Z,2.90
2017-12-14T18:08:25.053Z,3.00
2017-12-14T18:10:58.794Z,3.00
2017-12-14T18:13:32.912Z,3.00
2017-12-14T18:16:06.726Z,3.10
2017-12-14T18:18:40.539Z,3.10
2017-12-14T18:21:15.388Z,3.10
2017-12-14T18:23:49.840Z,3.10
2017-12-14T18:26:23.705Z,3.10
2017-12-14T18:28:57.486Z,3.10
2017-12-14T18:31:32.983Z,3.10
2017-12-14T18:34:07.391Z,3.20
2017-12-14T18:36:41.146Z,3.20
2017-12-14T18:39:15.001Z,3.20
2017-12-14T18:41:50.673Z,3.20
2017-12-14T18:44:24.296Z,3.30
2017-12-14T18:46:58.747Z,3.20
2017-12-14T18:49:33.346Z,3.30
2017-12-14T18:52:07.762Z,3.20
2017-12-14T18:54:41.634Z,3.00
2017-12-14T18:57:15.694Z,3.00
2017-12-14T18:59:50.187Z,2.70
2017-12-14T19:02:24.872Z,2.70
2017-12-14T19:04:59.396Z,2.60
2017-12-14T19:07:34.441Z,2.60
2017-12-14T19:10:08.986Z,2.50
2017-12-14T19:12:42.996Z,2.50
2017-12-14T19:15:17.433Z,2.40
2017-12-14T19:17:53.482Z,2.30
2017-12-14T19:20:27.892Z,2.30
2017-12-14T19:23:02.489Z,2.30
2017-12-14T19:25:36.185Z,2.30
2017-12-14T19:28:09.932Z,2.20
2017-12-14T19:30:43.671Z,2.20
2017-12-14T19:33:17.518Z,2.10
2017-12-14T19:35:51.218Z,2.10
2017-12-14T19:38:25.029Z,2.00
2017-12-14T19:40:58.820Z,2.00
2017-12-14T19:43:32.601Z,2.00
2017-12-14T19:46:06.461Z,2.00
2017-12-14T19:48:40.279Z,1.90
2017-12-14T19:51:14.133Z,2.00
2017-12-14T19:53:47.854Z,2.10
2017-12-14T19:56:21.810Z,2.10
2017-12-14T19:58:55.639Z,2.20
2017-12-14T20:01:29.437Z,2.10
2017-12-14T20:04:05.313Z,2.10
2017-12-14T20:06:41.462Z,2.20
2017-12-14T20:09:17.760Z,2.10
2017-12-14T20:11:52.374Z,2.20
2017-12-14T20:14:26.276Z,2.20
2017-12-14T20:16:59.873Z,2.20
2017-12-14T20:19:41.753Z,2.30
2017-12-14T20:22:15.524Z,2.30
2017-12-14T20:24:50.030Z,2.30
2017-12-14T20:27:24.384Z,2.40
2017-12-14T20:29:58.290Z,2.40
2017-12-14T20:32:32.429Z,2.40
2017-12-14T20:35:06.214Z,2.40
2017-12-14T20:37:40.942Z,2.40
2017-12-14T20:40:14.543Z,2.50
2017-12-14T20:42:48.264Z,2.40
2017-12-14T20:45:25.834Z,2.40
2017-12-14T20:47:59.458Z,2.40
2017-12-14T20:50:34.005Z,2.40
2017-12-14T20:53:08.456Z,2.30
2017-12-14T20:55:43.099Z,2.20
2017-12-14T20:58:18.656Z,2.20
2017-12-14T21:00:54.635Z,2.20
2017-12-14T21:03:29.772Z,2.40
2017-12-14T21:06:03.858Z,2.40
2017-12-14T21:08:38.985Z,2.30
2017-12-14T21:11:13.849Z,2.20
2017-12-14T21:13:47.614Z,2.20
2017-12-14T21:16:22.203Z,2.10
2017-12-14T21:18:55.891Z,2.10
2017-12-14T21:21:35.112Z,2.10
2017-12-14T21:26:54.230Z,1.90
2017-12-14T21:32:08.076Z,1.90
2017-12-14T21:34:42.013Z,1.90
2017-12-14T21:37:22.793Z,2.10
2017-12-14T21:39:58.487Z,2.20
2017-12-14T21:45:13.111Z,2.20
2017-12-14T21:47:48.274Z,2.20
2017-12-14T21:50:24.844Z,2.30
2017-12-14T21:52:58.809Z,2.20
2017-12-14T21:55:32.968Z,2.20
2017-12-14T21:58:08.296Z,2.10
2017-12-14T22:00:42.937Z,2.00
2017-12-14T22:03:17.199Z,2.00
2017-12-14T22:05:52.465Z,2.00
2017-12-14T22:08:26.693Z,1.90
2017-12-14T22:11:01.113Z,1.90
2017-12-14T22:13:39.942Z,1.90
2017-12-14T22:16:15.401Z,2.00
2017-12-14T22:18:53.590Z,2.00
2017-12-14T22:21:28.038Z,2.00
2017-12-14T22:29:19.446Z,1.90
2017-12-14T22:31:54.054Z,1.80
2017-12-14T22:34:29.861Z,1.70
2017-12-14T22:37:04.419Z,1.70
2017-12-14T22:39:39.264Z,1.80
2017-12-14T22:42:13.380Z,1.80
2017-12-14T22:44:47.310Z,1.90
2017-12-14T22:47:21.736Z,1.90
2017-12-14T22:49:56.701Z,1.80
2017-12-14T22:52:31.736Z,1.80
2017-12-14T22:55:05.867Z,1.70
2017-12-14T22:57:39.428Z,1.70
2017-12-14T23:00:14.072Z,1.70
2017-12-14T23:02:50.570Z,1.80
2017-12-14T23:05:24.679Z,1.90
2017-12-14T23:07:59.405Z,2.00
2017-12-14T23:10:33.272Z,2.20
2017-12-14T23:13:07.072Z,2.30
2017-12-14T23:15:41.495Z,2.30
2017-12-14T23:18:16.240Z,2.40
2017-12-14T23:20:50.645Z,2.40
2017-12-14T23:23:25.362Z,2.40
2017-12-14T23:28:46.783Z,2.50
2017-12-14T23:31:22.297Z,2.50
2017-12-14T23:33:57.509Z,2.50
2017-12-14T23:36:31.756Z,2.60
2017-12-14T23:39:05.465Z,2.60
2017-12-14T23:41:40.027Z,2.60
2017-12-14T23:44:15.897Z,2.70
2017-12-14T23:46:54.232Z,2.70
2017-12-14T23:49:28.652Z,2.70
2017-12-14T23:54:41.924Z,2.70
2017-12-14T23:57:18.546Z,2.70
2017-12-14T23:59:57.969Z,2.70
